Portada
METAR-TAF:

METAR-TAF

Aeroports :

Jammu, Índia

latitud: 32-41-21N, longitud: 74-50-15E, altitud: 314 m

METAR: manca

Hora: 16:11 (10:41 UTC)

Pronòstic

L'informe es va fer fa 7 hores i 11 minuts, a les 03:30 UTC
Pronòstic vàlid del 15 a les 06 UTC al 15 a les 18 UTC
Vent 2 kt amb direcció variable
Visibilitat: 6000 m
Escasses núvols a una alçada de 9000 ft
Evolucionant progressivament
entre 15 i 12 UTC
Visibilitat: 5000 m
boirina

TAF: VIJU 150330Z 1506/1518 VRB02KT 6000 FEW090 BECMG 15121514 5000 BR

Observacions i pronòstics meteorològics de més de 4000 aeroports (METAR i TAF).

Les estacions disponibles són els punts grocs i vermells al mapa.

Posi el ratolí al punt desitjat per veure el nom de l'estació.

Feu clic per veure les observacions i els pronòstics meteorològics.

Per canviar el mapa: feu clic els botons verds amb una creu de color negre per apropar; al botó verd amb un guió per allunyar la imatge; o en les fletxes verdes per a mapes adjacents.


METAR-TAF: